sensor_id;sensor_type;location;lat;lon;timestamp;pressure;altitude;pressure_sealevel;temperature;humidity
43757;BME280;73222;41.866;12.462;2024-03-25T00:01:25;100207.59;;;10.99;100.00
43757;BME280;73222;41.866;12.462;2024-03-25T00:03:50;100211.06;;;10.92;100.00
43757;BME280;73222;41.866;12.462;2024-03-25T00:06:16;100207.59;;;10.94;100.00
43757;BME280;73222;41.866;12.462;2024-03-25T00:08:42;100205.03;;;10.88;100.00
43757;BME280;73222;41.866;12.462;2024-03-25T00:11:17;100203.31;;;10.85;100.00
43757;BME280;73222;41.866;12.462;2024-03-25T00:13:46;100205.94;;;10.76;100.00
43757;BME280;73222;41.866;12.462;2024-03-25T00:16:12;100211.13;;;10.79;100.00
43757;BME280;73222;41.866;12.462;2024-03-25T00:18:37;100211.16;;;10.65;100.00
43757;BME280;73222;41.866;12.462;2024-03-25T00:21:03;100215.47;;;10.68;100.00
43757;BME280;73222;41.866;12.462;2024-03-25T00:23:28;100217.22;;;10.61;100.00
43757;BME280;73222;41.866;12.462;2024-03-25T00:25:55;100218.09;;;10.55;100.00
43757;BME280;73222;41.866;12.462;2024-03-25T00:28:20;100221.53;;;10.54;100.00
43757;BME280;73222;41.866;12.462;2024-03-25T00:30:45;100212.94;;;10.49;100.00
43757;BME280;73222;41.866;12.462;2024-03-25T00:33:11;100217.25;;;10.52;100.00
43757;BME280;73222;41.866;12.462;2024-03-25T00:35:36;100211.22;;;10.47;100.00
43757;BME280;73222;41.866;12.462;2024-03-25T00:38:02;100211.22;;;10.47;100.00
43757;BME280;73222;41.866;12.462;2024-03-25T00:40:27;100211.19;;;10.36;100.00
43757;BME280;73222;41.866;12.462;2024-03-25T00:42:52;100202.59;;;10.27;100.00
43757;BME280;73222;41.866;12.462;2024-03-25T00:45:18;100208.59;;;10.36;100.00
43757;BME280;73222;41.866;12.462;2024-03-25T00:47:43;100212.94;;;10.27;100.00
43757;BME280;73222;41.866;12.462;2024-03-25T00:50:09;100220.69;;;10.23;100.00
43757;BME280;73222;41.866;12.462;2024-03-25T00:52:35;100222.44;;;10.21;100.00
43757;BME280;73222;41.866;12.462;2024-03-25T00:55:00;100219.84;;;10.13;100.00
43757;BME280;73222;41.866;12.462;2024-03-25T00:57:26;100212.97;;;10.13;100.00
43757;BME280;73222;41.866;12.462;2024-03-25T00:59:51;100219.00;;;10.00;100.00
43757;BME280;73222;41.866;12.462;2024-03-25T01:02:17;100218.13;;;9.96;100.00
43757;BME280;73222;41.866;12.462;2024-03-25T01:04:42;100219.84;;;9.97;100.00
43757;BME280;73222;41.866;12.462;2024-03-25T01:07:08;100216.41;;;10.04;100.00
43757;BME280;73222;41.866;12.462;2024-03-25T01:09:34;100215.56;;;10.04;100.00
43757;BME280;73222;41.866;12.462;2024-03-25T01:11:59;100218.16;;;9.95;100.00
43757;BME280;73222;41.866;12.462;2024-03-25T01:14:24;100229.34;;;9.92;100.00
43757;BME280;73222;41.866;12.462;2024-03-25T01:16:50;100233.63;;;9.90;100.00
43757;BME280;73222;41.866;12.462;2024-03-25T01:19:15;100237.94;;;9.88;100.00
43757;BME280;73222;41.866;12.462;2024-03-25T01:21:40;100239.69;;;9.87;100.00
43757;BME280;73222;41.866;12.462;2024-03-25T01:24:06;100243.13;;;9.79;100.00
43757;BME280;73222;41.866;12.462;2024-03-25T01:26:31;100246.56;;;9.74;100.00
43757;BME280;73222;41.866;12.462;2024-03-25T01:28:56;100250.00;;;9.70;100.00
43757;BME280;73222;41.866;12.462;2024-03-25T01:31:22;100245.69;;;9.66;100.00
43757;BME280;73222;41.866;12.462;2024-03-25T01:33:47;100247.38;;;9.58;100.00
43757;BME280;73222;41.866;12.462;2024-03-25T01:36:12;100246.53;;;9.67;100.00
43757;BME280;73222;41.866;12.462;2024-03-25T01:38:43;100256.91;;;9.68;100.00
43757;BME280;73222;41.866;12.462;2024-03-25T01:41:12;100259.44;;;9.56;100.00
43757;BME280;73222;41.866;12.462;2024-03-25T01:43:40;100256.03;;;9.60;100.00
43757;BME280;73222;41.866;12.462;2024-03-25T01:46:05;100249.13;;;9.53;100.00
43757;BME280;73222;41.866;12.462;2024-03-25T01:48:32;100239.66;;;9.56;100.00
43757;BME280;73222;41.866;12.462;2024-03-25T01:50:58;100243.09;;;9.61;100.00
43757;BME280;73222;41.866;12.462;2024-03-25T01:53:27;100244.81;;;9.52;100.00
43757;BME280;73222;41.866;12.462;2024-03-25T01:55:54;100237.91;;;9.58;100.00
43757;BME280;73222;41.866;12.462;2024-03-25T01:58:22;100238.78;;;9.59;100.00
43757;BME280;73222;41.866;12.462;2024-03-25T02:00:49;100233.59;;;9.56;100.00
43757;BME280;73222;41.866;12.462;2024-03-25T02:03:15;100243.09;;;9.61;100.00
43757;BME280;73222;41.866;12.462;2024-03-25T02:05:40;100241.34;;;9.51;100.00
43757;BME280;73222;41.866;12.462;2024-03-25T02:08:06;100232.75;;;9.54;100.00
43757;BME280;73222;41.866;12.462;2024-03-25T02:10:32;100231.00;;;9.46;100.00
43757;BME280;73222;41.866;12.462;2024-03-25T02:12:58;100237.03;;;9.42;100.00
43757;BME280;73222;41.866;12.462;2024-03-25T02:15:23;100237.00;;;9.36;100.00
43757;BME280;73222;41.866;12.462;2024-03-25T02:17:51;100243.03;;;9.46;100.00
43757;BME280;73222;41.866;12.462;2024-03-25T02:20:16;100242.16;;;9.34;100.00
43757;BME280;73222;41.866;12.462;2024-03-25T02:22:42;100243.00;;;9.32;100.00
43757;BME280;73222;41.866;12.462;2024-03-25T02:25:09;100236.97;;;9.33;100.00
43757;BME280;73222;41.866;12.462;2024-03-25T02:27:38;100235.25;;;9.27;100.00
43757;BME280;73222;41.866;12.462;2024-03-25T02:32:31;100231.78;;;9.17;100.00
43757;BME280;73222;41.866;12.462;2024-03-25T02:35:16;100238.66;;;9.15;100.00
43757;BME280;73222;41.866;12.462;2024-03-25T02:37:42;100236.06;;;9.12;100.00
43757;BME280;73222;41.866;12.462;2024-03-25T02:40:08;100245.56;;;9.10;100.00
43757;BME280;73222;41.866;12.462;2024-03-25T02:42:35;100245.50;;;9.07;100.00
43757;BME280;73222;41.866;12.462;2024-03-25T02:45:00;100246.34;;;9.01;100.00
43757;BME280;73222;41.866;12.462;2024-03-25T02:47:26;100254.13;;;9.06;100.00
43757;BME280;73222;41.866;12.462;2024-03-25T02:49:52;100250.72;;;9.13;100.00
43757;BME280;73222;41.866;12.462;2024-03-25T02:52:18;100250.72;;;9.13;100.00
43757;BME280;73222;41.866;12.462;2024-03-25T02:54:44;100262.69;;;8.99;100.00
43757;BME280;73222;41.866;12.462;2024-03-25T02:57:10;100257.56;;;9.05;100.00
43757;BME280;73222;41.866;12.462;2024-03-25T02:59:35;100260.13;;;9.03;100.00
43757;BME280;73222;41.866;12.462;2024-03-25T03:02:01;100260.97;;;8.98;100.00
43757;BME280;73222;41.866;12.462;2024-03-25T03:04:26;100266.97;;;8.92;100.00
43757;BME280;73222;41.866;12.462;2024-03-25T03:06:52;100267.84;;;8.97;100.00
43757;BME280;73222;41.866;12.462;2024-03-25T03:09:17;100266.13;;;8.95;100.00
43757;BME280;73222;41.866;12.462;2024-03-25T03:11:42;100255.78;;;8.91;100.00
43757;BME280;73222;41.866;12.462;2024-03-25T03:14:08;100260.88;;;8.79;100.00
43757;BME280;73222;41.866;12.462;2024-03-25T03:16:33;100264.34;;;8.84;100.00
43757;BME280;73222;41.866;12.462;2024-03-25T03:18:58;100269.53;;;8.90;100.00
43757;BME280;73222;41.866;12.462;2024-03-25T03:21:24;100269.50;;;8.81;100.00
43757;BME280;73222;41.866;12.462;2024-03-25T03:23:50;100267.81;;;8.89;100.00
43757;BME280;73222;41.866;12.462;2024-03-25T03:26:15;100269.50;;;8.84;100.00
43757;BME280;73222;41.866;12.462;2024-03-25T03:28:41;100264.44;;;9.03;100.00
43757;BME280;73222;41.866;12.462;2024-03-25T03:31:06;100269.59;;;9.00;100.00
43757;BME280;73222;41.866;12.462;2024-03-25T03:33:32;100262.69;;;8.99;100.00
43757;BME280;73222;41.866;12.462;2024-03-25T03:35:57;100252.38;;;8.96;100.00
43757;BME280;73222;41.866;12.462;2024-03-25T03:38:23;100260.06;;;8.92;100.00
43757;BME280;73222;41.866;12.462;2024-03-25T03:41:02;100265.22;;;8.86;100.00
43757;BME280;73222;41.866;12.462;2024-03-25T03:43:32;100269.53;;;8.90;100.00
43757;BME280;73222;41.866;12.462;2024-03-25T03:45:57;100278.09;;;8.80;100.00
43757;BME280;73222;41.866;12.462;2024-03-25T03:48:22;100282.34;;;8.73;100.00
43757;BME280;73222;41.866;12.462;2024-03-25T03:50:48;100286.66;;;8.70;100.00
43757;BME280;73222;41.866;12.462;2024-03-25T03:53:13;100278.97;;;8.85;100.00
43757;BME280;73222;41.866;12.462;2024-03-25T03:55:38;100267.75;;;8.77;100.00
43757;BME280;73222;41.866;12.462;2024-03-25T03:58:04;100273.81;;;8.84;100.00
43757;BME280;73222;41.866;12.462;2024-03-25T04:00:33;100272.91;;;8.77;100.00
43757;BME280;73222;41.866;12.462;2024-03-25T04:02:58;100278.91;;;8.71;100.00
43757;BME280;73222;41.866;12.462;2024-03-25T04:05:24;100278.94;;;8.74;100.00
43757;BME280;73222;41.866;12.462;2024-03-25T04:07:49;100278.91;;;8.73;100.00
43757;BME280;73222;41.866;12.462;2024-03-25T04:10:15;100284.91;;;8.69;100.00
43757;BME280;73222;41.866;12.462;2024-03-25T04:12:40;100279.78;;;8.75;100.00
43757;BME280;73222;41.866;12.462;2024-03-25T04:15:06;100296.88;;;8.60;100.00
43757;BME280;73222;41.866;12.462;2024-03-25T04:17:31;100300.28;;;8.53;100.00
43757;BME280;73222;41.866;12.462;2024-03-25T04:19:59;100295.94;;;8.50;100.00
43757;BME280;73222;41.866;12.462;2024-03-25T04:22:31;100290.78;;;8.50;100.00
43757;BME280;73222;41.866;12.462;2024-03-25T04:24:57;100290.78;;;8.50;100.00
43757;BME280;73222;41.866;12.462;2024-03-25T04:27:22;100293.34;;;8.46;100.00
43757;BME280;73222;41.866;12.462;2024-03-25T04:29:49;100302.03;;;8.57;100.00
43757;BME280;73222;41.866;12.462;2024-03-25T04:32:15;100302.78;;;8.45;100.00
43757;BME280;73222;41.866;12.462;2024-03-25T04:34:40;100305.31;;;8.41;100.00
43757;BME280;73222;41.866;12.462;2024-03-25T04:37:05;100303.59;;;8.41;100.00
43757;BME280;73222;41.866;12.462;2024-03-25T04:39:31;100296.69;;;8.35;100.00
43757;BME280;73222;41.866;12.462;2024-03-25T04:41:57;100305.31;;;8.37;100.00
43757;BME280;73222;41.866;12.462;2024-03-25T04:44:23;100310.44;;;8.34;100.00
43757;BME280;73222;41.866;12.462;2024-03-25T04:46:48;100313.84;;;8.30;100.00
43757;BME280;73222;41.866;12.462;2024-03-25T04:49:14;100320.72;;;8.30;100.00
43757;BME280;73222;41.866;12.462;2024-03-25T04:51:39;100329.25;;;8.24;100.00
43757;BME280;73222;41.866;12.462;2024-03-25T04:54:04;100323.19;;;8.17;100.00
43757;BME280;73222;41.866;12.462;2024-03-25T04:56:30;100322.31;;;8.14;100.00
43757;BME280;73222;41.866;12.462;2024-03-25T04:58:56;100311.97;;;8.15;100.00
43757;BME280;73222;41.866;12.462;2024-03-25T05:01:26;100307.66;;;8.13;100.00
43757;BME280;73222;41.866;12.462;2024-03-25T05:03:52;100305.97;;;8.13;100.00
43757;BME280;73222;41.866;12.462;2024-03-25T05:06:17;100311.09;;;8.11;100.00
43757;BME280;73222;41.866;12.462;2024-03-25T05:08:42;100325.69;;;8.13;100.00
43757;BME280;73222;41.866;12.462;2024-03-25T05:11:08;100336.91;;;8.16;100.00
43757;BME280;73222;41.866;12.462;2024-03-25T05:13:33;100352.50;;;8.27;100.00
43757;BME280;73222;41.866;12.462;2024-03-25T05:15:58;100353.50;;;8.45;100.00
43757;BME280;73222;41.866;12.462;2024-03-25T05:18:24;100361.44;;;8.65;100.00
43757;BME280;73222;41.866;12.462;2024-03-25T05:20:49;100367.81;;;9.21;100.00
43757;BME280;73222;41.866;12.462;2024-03-25T05:23:14;100349.84;;;9.49;100.00
43757;BME280;73222;41.866;12.462;2024-03-25T05:25:40;100334.56;;;10.44;100.00
43757;BME280;73222;41.866;12.462;2024-03-25T05:28:05;100336.25;;;10.91;100.00
43757;BME280;73222;41.866;12.462;2024-03-25T05:30:32;100336.97;;;11.35;100.00
43757;BME280;73222;41.866;12.462;2024-03-25T05:32:57;100338.72;;;11.37;100.00
43757;BME280;73222;41.866;12.462;2024-03-25T05:35:23;100342.31;;;10.62;100.00
43757;BME280;73222;41.866;12.462;2024-03-25T05:37:49;100355.25;;;10.83;100.00
43757;BME280;73222;41.866;12.462;2024-03-25T05:40:14;100356.13;;;10.67;100.00
43757;BME280;73222;41.866;12.462;2024-03-25T05:42:40;100353.56;;;10.64;100.00
43757;BME280;73222;41.866;12.462;2024-03-25T05:45:06;100357.84;;;10.68;100.00
43757;BME280;73222;41.866;12.462;2024-03-25T05:47:32;100350.00;;;11.08;100.00
43757;BME280;73222;41.866;12.462;2024-03-25T05:49:57;100352.31;;;11.80;100.00
43757;BME280;73222;41.866;12.462;2024-03-25T05:52:22;100351.41;;;11.92;100.00
43757;BME280;73222;41.866;12.462;2024-03-25T05:54:48;100353.72;;;12.40;100.00
43757;BME280;73222;41.866;12.462;2024-03-25T05:57:13;100361.00;;;12.91;100.00
43757;BME280;73222;41.866;12.462;2024-03-25T05:59:38;100372.31;;;12.89;100.00
43757;BME280;73222;41.866;12.462;2024-03-25T06:02:04;100374.56;;;13.20;100.00
43757;BME280;73222;41.866;12.462;2024-03-25T06:04:29;100371.19;;;13.12;100.00
43757;BME280;73222;41.866;12.462;2024-03-25T06:06:54;100371.28;;;13.82;100.00
43757;BME280;73222;41.866;12.462;2024-03-25T06:09:20;100375.22;;;14.11;100.00
43757;BME280;73222;41.866;12.462;2024-03-25T06:11:46;100376.13;;;14.64;100.00
43757;BME280;73222;41.866;12.462;2024-03-25T06:14:11;100386.81;;;14.47;100.00
43757;BME280;73222;41.866;12.462;2024-03-25T06:16:37;100386.75;;;14.51;100.00
43757;BME280;73222;41.866;12.462;2024-03-25T06:19:03;100398.50;;;14.21;100.00
43757;BME280;73222;41.866;12.462;2024-03-25T06:21:28;100393.38;;;15.21;100.00
43757;BME280;73222;41.866;12.462;2024-03-25T06:23:54;100386.72;;;15.52;100.00
43757;BME280;73222;41.866;12.462;2024-03-25T06:26:20;100397.34;;;15.84;100.00
43757;BME280;73222;41.866;12.462;2024-03-25T06:28:45;100397.84;;;16.41;100.00
43757;BME280;73222;41.866;12.462;2024-03-25T06:31:11;100391.81;;;16.37;100.00
43757;BME280;73222;41.866;12.462;2024-03-25T06:33:55;100382.47;;;16.98;100.00
43757;BME280;73222;41.866;12.462;2024-03-25T06:36:41;100393.16;;;17.23;100.00
43757;BME280;73222;41.866;12.462;2024-03-25T06:39:07;100392.16;;;17.89;91.64
43757;BME280;73222;41.866;12.462;2024-03-25T06:41:32;100397.59;;;17.21;94.92
43757;BME280;73222;41.866;12.462;2024-03-25T06:43:58;100396.56;;;16.21;100.00
43757;BME280;73222;41.866;12.462;2024-03-25T06:46:23;100402.88;;;16.48;100.00
43757;BME280;73222;41.866;12.462;2024-03-25T06:48:48;100394.69;;;16.62;100.00
43757;BME280;73222;41.866;12.462;2024-03-25T06:51:14;100401.72;;;17.60;98.04
43757;BME280;73222;41.866;12.462;2024-03-25T06:53:40;100412.03;;;17.96;89.75
43757;BME280;73222;41.866;12.462;2024-03-25T06:56:05;100410.75;;;18.38;88.13
43757;BME280;73222;41.866;12.462;2024-03-25T06:58:33;100415.69;;;19.02;79.95
43757;BME280;73222;41.866;12.462;2024-03-25T07:01:07;100409.03;;;18.09;80.78
43757;BME280;73222;41.866;12.462;2024-03-25T07:03:33;100408.16;;;18.91;79.77
43757;BME280;73222;41.866;12.462;2024-03-25T07:05:59;100416.44;;;18.51;78.86
43757;BME280;73222;41.866;12.462;2024-03-25T07:08:28;100409.66;;;18.73;74.97
43757;BME280;73222;41.866;12.462;2024-03-25T07:10:55;100408.06;;;18.94;73.91
43757;BME280;73222;41.866;12.462;2024-03-25T07:13:21;100410.50;;;18.46;79.54
43757;BME280;73222;41.866;12.462;2024-03-25T07:15:46;100415.69;;;19.27;72.76
43757;BME280;73222;41.866;12.462;2024-03-25T07:18:12;100414.19;;;19.69;67.16
43757;BME280;73222;41.866;12.462;2024-03-25T07:20:42;100421.03;;;20.20;59.25
43757;BME280;73222;41.866;12.462;2024-03-25T07:23:08;100425.75;;;20.77;54.90
43757;BME280;73222;41.866;12.462;2024-03-25T07:25:34;100421.97;;;21.45;52.76
43757;BME280;73222;41.866;12.462;2024-03-25T07:27:59;100425.00;;;20.95;48.50
43757;BME280;73222;41.866;12.462;2024-03-25T07:30:25;100421.28;;;21.81;49.66
43757;BME280;73222;41.866;12.462;2024-03-25T07:32:59;100413.38;;;21.01;49.43
43757;BME280;73222;41.866;12.462;2024-03-25T07:35:25;100410.25;;;20.91;49.12
43757;BME280;73222;41.866;12.462;2024-03-25T07:37:51;100406.97;;;21.07;47.52
43757;BME280;73222;41.866;12.462;2024-03-25T07:40:17;100405.09;;;20.90;48.15
43757;BME280;73222;41.866;12.462;2024-03-25T07:42:43;100412.44;;;21.82;45.92
43757;BME280;73222;41.866;12.462;2024-03-25T07:45:08;100422.69;;;21.69;44.05
43757;BME280;73222;41.866;12.462;2024-03-25T07:47:34;100420.34;;;21.82;43.79
43757;BME280;73222;41.866;12.462;2024-03-25T07:49:59;100429.22;;;21.99;42.96
43757;BME280;73222;41.866;12.462;2024-03-25T07:52:28;100438.88;;;23.76;40.90
43757;BME280;73222;41.866;12.462;2024-03-25T07:54:54;100438.44;;;23.34;37.94
43757;BME280;73222;41.866;12.462;2024-03-25T07:57:20;100437.09;;;22.37;39.91
43757;BME280;73222;41.866;12.462;2024-03-25T07:59:45;100439.25;;;23.36;39.57
43757;BME280;73222;41.866;12.462;2024-03-25T08:02:11;100454.38;;;23.66;37.96
43757;BME280;73222;41.866;12.462;2024-03-25T08:04:36;100449.59;;;24.53;35.20
43757;BME280;73222;41.866;12.462;2024-03-25T08:07:02;100455.72;;;24.86;34.70
43757;BME280;73222;41.866;12.462;2024-03-25T08:09:28;100461.19;;;25.28;32.95
43757;BME280;73222;41.866;12.462;2024-03-25T08:11:53;100465.06;;;25.81;30.85
43757;BME280;73222;41.866;12.462;2024-03-25T08:14:19;100461.63;;;25.93;31.58
43757;BME280;73222;41.866;12.462;2024-03-25T08:16:44;100462.53;;;26.48;28.62
43757;BME280;73222;41.866;12.462;2024-03-25T08:19:10;100463.16;;;25.83;29.94
43757;BME280;73222;41.866;12.462;2024-03-25T08:21:35;100459.28;;;25.88;29.89
43757;BME280;73222;41.866;12.462;2024-03-25T08:24:00;100468.59;;;26.51;29.58
43757;BME280;73222;41.866;12.462;2024-03-25T08:26:26;100460.31;;;27.87;27.96
43757;BME280;73222;41.866;12.462;2024-03-25T08:28:51;100466.06;;;27.28;27.27
43757;BME280;73222;41.866;12.462;2024-03-25T08:31:16;100467.59;;;27.07;26.96
43757;BME280;73222;41.866;12.462;2024-03-25T08:33:42;100461.41;;;27.71;27.63
43757;BME280;73222;41.866;12.462;2024-03-25T08:36:07;100460.41;;;28.09;25.95
43757;BME280;73222;41.866;12.462;2024-03-25T08:38:33;100457.13;;;24.92;28.11
43757;BME280;73222;41.866;12.462;2024-03-25T08:40:58;100451.88;;;27.29;26.84
43757;BME280;73222;41.866;12.462;2024-03-25T08:43:24;100451.09;;;27.40;26.23
43757;BME280;73222;41.866;12.462;2024-03-25T08:45:49;100456.91;;;27.72;26.13
43757;BME280;73222;41.866;12.462;2024-03-25T08:48:15;100453.25;;;27.98;25.43
43757;BME280;73222;41.866;12.462;2024-03-25T08:50:40;100458.50;;;28.24;25.94
43757;BME280;73222;41.866;12.462;2024-03-25T08:53:05;100461.00;;;29.11;24.99
43757;BME280;73222;41.866;12.462;2024-03-25T08:55:31;100461.00;;;29.33;24.64
43757;BME280;73222;41.866;12.462;2024-03-25T08:57:57;100463.72;;;28.98;24.05
43757;BME280;73222;41.866;12.462;2024-03-25T09:00:26;100469.56;;;27.94;25.18
43757;BME280;73222;41.866;12.462;2024-03-25T09:02:52;100459.66;;;29.16;25.14
43757;BME280;73222;41.866;12.462;2024-03-25T09:05:18;100468.28;;;30.00;23.43
43757;BME280;73222;41.866;12.462;2024-03-25T09:07:44;100462.59;;;29.70;23.81
43757;BME280;73222;41.866;12.462;2024-03-25T09:10:10;100462.19;;;29.06;24.01
43757;BME280;73222;41.866;12.462;2024-03-25T09:12:54;100458.13;;;29.71;23.74
43757;BME280;73222;41.866;12.462;2024-03-25T09:15:19;100460.06;;;30.36;22.68
43757;BME280;73222;41.866;12.462;2024-03-25T09:17:45;100447.06;;;29.30;22.28
43757;BME280;73222;41.866;12.462;2024-03-25T09:20:10;100440.25;;;29.14;23.15
43757;BME280;73222;41.866;12.462;2024-03-25T09:22:44;100422.50;;;30.16;22.15
43757;BME280;73222;41.866;12.462;2024-03-25T09:25:10;100422.13;;;29.65;22.53
43757;BME280;73222;41.866;12.462;2024-03-25T09:27:36;100417.44;;;30.67;21.32
43757;BME280;73222;41.866;12.462;2024-03-25T09:30:02;100415.56;;;29.69;22.20
43757;BME280;73222;41.866;12.462;2024-03-25T09:32:29;100420.09;;;28.76;23.49
43757;BME280;73222;41.866;12.462;2024-03-25T09:34:56;100413.31;;;26.02;27.12
43757;BME280;73222;41.866;12.462;2024-03-25T09:37:22;100417.56;;;26.05;27.99
43757;BME280;73222;41.866;12.462;2024-03-25T09:39:47;100426.88;;;25.83;28.54
43757;BME280;73222;41.866;12.462;2024-03-25T09:42:14;100423.56;;;24.92;30.79
43757;BME280;73222;41.866;12.462;2024-03-25T09:44:43;100421.09;;;23.46;33.07
43757;BME280;73222;41.866;12.462;2024-03-25T09:47:09;100399.53;;;23.20;35.18
43757;BME280;73222;41.866;12.462;2024-03-25T09:49:37;100400.59;;;22.47;40.48
43757;BME280;73222;41.866;12.462;2024-03-25T09:52:06;100400.84;;;22.23;45.23
43757;BME280;73222;41.866;12.462;2024-03-25T09:54:31;100394.25;;;21.57;55.29
43757;BME280;73222;41.866;12.462;2024-03-25T09:56:58;100396.06;;;21.35;58.42
43757;BME280;73222;41.866;12.462;2024-03-25T09:59:24;100395.94;;;20.55;65.51
43757;BME280;73222;41.866;12.462;2024-03-25T10:01:49;100382.28;;;20.25;74.20
43757;BME280;73222;41.866;12.462;2024-03-25T10:04:16;100391.47;;;20.14;72.62
43757;BME280;73222;41.866;12.462;2024-03-25T10:06:41;100387.25;;;19.86;70.83
43757;BME280;73222;41.866;12.462;2024-03-25T10:09:07;100385.91;;;19.76;71.83
43757;BME280;73222;41.866;12.462;2024-03-25T10:11:34;100377.66;;;19.85;68.88
43757;BME280;73222;41.866;12.462;2024-03-25T10:14:01;100370.31;;;20.17;64.96
43757;BME280;73222;41.866;12.462;2024-03-25T10:16:27;100368.44;;;19.75;79.30
43757;BME280;73222;41.866;12.462;2024-03-25T10:18:52;100372.75;;;20.00;88.99
43757;BME280;73222;41.866;12.462;2024-03-25T10:21:21;100362.47;;;21.21;83.02
43757;BME280;73222;41.866;12.462;2024-03-25T10:23:48;100356.47;;;22.14;73.17
43757;BME280;73222;41.866;12.462;2024-03-25T10:26:30;100345.97;;;21.18;83.23
43757;BME280;73222;41.866;12.462;2024-03-25T10:29:04;100350.63;;;20.92;89.79
43757;BME280;73222;41.866;12.462;2024-03-25T10:31:31;100357.59;;;21.71;82.03
43757;BME280;73222;41.866;12.462;2024-03-25T10:33:57;100361.47;;;21.05;82.04
43757;BME280;73222;41.866;12.462;2024-03-25T10:36:24;100348.25;;;20.85;81.91
43757;BME280;73222;41.866;12.462;2024-03-25T10:38:54;100345.03;;;22.32;69.53
43757;BME280;73222;41.866;12.462;2024-03-25T10:41:20;100335.78;;;23.28;59.70
43757;BME280;73222;41.866;12.462;2024-03-25T10:43:47;100325.19;;;21.88;71.65
43757;BME280;73222;41.866;12.462;2024-03-25T10:46:18;100322.06;;;21.61;72.03
43757;BME280;73222;41.866;12.462;2024-03-25T10:48:52;100321.59;;;23.13;62.78
43757;BME280;73222;41.866;12.462;2024-03-25T10:51:21;100323.75;;;24.02;53.05
43757;BME280;73222;41.866;12.462;2024-03-25T10:53:51;100328.56;;;24.57;43.41
43757;BME280;73222;41.866;12.462;2024-03-25T10:56:20;100329.75;;;25.26;41.46
43757;BME280;73222;41.866;12.462;2024-03-25T10:58:48;100335.66;;;24.71;39.74
43757;BME280;73222;41.866;12.462;2024-03-25T11:01:15;100326.56;;;24.46;42.06
43757;BME280;73222;41.866;12.462;2024-03-25T11:03:42;100327.09;;;24.37;40.42
43757;BME280;73222;41.866;12.462;2024-03-25T11:06:07;100307.19;;;25.05;38.65
43757;BME280;73222;41.866;12.462;2024-03-25T11:08:33;100313.38;;;25.19;34.46
43757;BME280;73222;41.866;12.462;2024-03-25T11:10:59;100304.06;;;26.10;33.45
43757;BME280;73222;41.866;12.462;2024-03-25T11:13:27;100305.78;;;26.11;35.33
43757;BME280;73222;41.866;12.462;2024-03-25T11:15:52;100296.41;;;25.92;33.74
43757;BME280;73222;41.866;12.462;2024-03-25T11:18:22;100284.41;;;25.72;35.33
43757;BME280;73222;41.866;12.462;2024-03-25T11:21:01;100285.47;;;26.38;34.64
43757;BME280;73222;41.866;12.462;2024-03-25T11:23:26;100273.03;;;25.57;35.77
43757;BME280;73222;41.866;12.462;2024-03-25T11:25:55;100275.94;;;25.67;34.02
43757;BME280;73222;41.866;12.462;2024-03-25T11:28:29;100270.94;;;25.48;32.96
43757;BME280;73222;41.866;12.462;2024-03-25T11:30:55;100270.00;;;26.04;33.02
43757;BME280;73222;41.866;12.462;2024-03-25T11:33:21;100269.88;;;25.23;32.28
43757;BME280;73222;41.866;12.462;2024-03-25T11:35:50;100263.44;;;25.69;29.61
43757;BME280;73222;41.866;12.462;2024-03-25T11:38:15;100254.41;;;26.12;30.17
43757;BME280;73222;41.866;12.462;2024-03-25T11:40:43;100253.19;;;26.31;27.71
43757;BME280;73222;41.866;12.462;2024-03-25T11:43:09;100259.28;;;25.65;29.61
43757;BME280;73222;41.866;12.462;2024-03-25T11:45:36;100248.81;;;25.76;29.66
43757;BME280;73222;41.866;12.462;2024-03-25T11:48:01;100234.78;;;25.61;28.22
43757;BME280;73222;41.866;12.462;2024-03-25T11:50:27;100237.56;;;25.45;25.46
43757;BME280;73222;41.866;12.462;2024-03-25T11:52:53;100240.88;;;26.56;26.46
43757;BME280;73222;41.866;12.462;2024-03-25T11:55:21;100236.84;;;26.37;29.69
43757;BME280;73222;41.866;12.462;2024-03-25T11:57:46;100224.66;;;25.81;32.93
43757;BME280;73222;41.866;12.462;2024-03-25T12:00:19;100238.16;;;24.79;34.74
43757;BME280;73222;41.866;12.462;2024-03-25T12:02:45;100223.91;;;24.22;36.49
43757;BME280;73222;41.866;12.462;2024-03-25T12:05:11;100221.50;;;24.48;36.26
43757;BME280;73222;41.866;12.462;2024-03-25T12:07:36;100221.88;;;24.86;35.49
43757;BME280;73222;41.866;12.462;2024-03-25T12:10:02;100217.91;;;25.35;34.05
43757;BME280;73222;41.866;12.462;2024-03-25T12:12:47;100220.34;;;24.52;37.42
43757;BME280;73222;41.866;12.462;2024-03-25T12:15:12;100223.56;;;24.43;36.05
43757;BME280;73222;41.866;12.462;2024-03-25T12:17:38;100213.28;;;24.96;36.91
43757;BME280;73222;41.866;12.462;2024-03-25T12:20:08;100223.75;;;25.68;35.80
43757;BME280;73222;41.866;12.462;2024-03-25T12:22:35;100212.88;;;24.15;38.69
43757;BME280;73222;41.866;12.462;2024-03-25T12:25:01;100209.28;;;25.04;38.80
43757;BME280;73222;41.866;12.462;2024-03-25T12:27:28;100212.75;;;25.74;37.41
43757;BME280;73222;41.866;12.462;2024-03-25T12:30:05;100208.97;;;25.78;37.97
43757;BME280;73222;41.866;12.462;2024-03-25T12:35:01;100209.88;;;26.56;35.57
43757;BME280;73222;41.866;12.462;2024-03-25T12:37:26;100209.44;;;26.75;34.96
43757;BME280;73222;41.866;12.462;2024-03-25T12:39:52;100212.97;;;26.37;34.95